Time;durP1;ratioP1;P1;durP2;ratioP2;P2;SDS_P1;SDS_P2;PMS_P1;PMS_P2;Temp;Humidity;BMP_temperature;BMP_pressure;BME280_temperature;BME280_humidity;BME280_pressure;Samples;Min_cycle;Max_cycle;Signal;HPM_P1;HPM_P2
2023/03/30 00:01:54;;;;;;;5.90;3.37;;;9.80;99.90;;;;;;5096293;28;20224;-74
2023/03/30 00:04:25;;;;;;;7.23;3.40;;;9.80;99.90;;;;;;5096126;28;20196;-74
2023/03/30 00:06:52;;;;;;;9.40;3.93;;;9.80;99.90;;;;;;5096117;28;20201;-73
2023/03/30 00:09:21;;;;;;;8.23;3.93;;;9.80;99.90;;;;;;5096001;28;20602;-73
2023/03/30 00:11:49;;;;;;;7.90;3.83;;;9.80;99.90;;;;;;5096185;28;20199;-73
2023/03/30 00:14:18;;;;;;;8.80;4.13;;;9.80;99.90;;;;;;5095941;28;20715;-74
2023/03/30 00:16:45;;;;;;;9.17;3.90;;;9.80;99.90;;;;;;5095902;28;20208;-73
2023/03/30 00:19:12;;;;;;;5.77;3.23;;;9.80;99.90;;;;;;5095962;28;20266;-73
2023/03/30 00:21:38;;;;;;;9.53;3.60;;;9.70;99.90;;;;;;5095680;28;20311;-73
2023/03/30 00:24:05;;;;;;;7.40;4.17;;;9.60;99.90;;;;;;5096008;28;20200;-73
2023/03/30 00:26:32;;;;;;;10.03;3.77;;;9.60;99.90;;;;;;5095588;28;20235;-73
2023/03/30 00:29:00;;;;;;;8.30;4.03;;;9.60;99.90;;;;;;5095575;28;20678;-73
2023/03/30 00:31:26;;;;;;;6.00;4.00;;;9.60;99.90;;;;;;5095750;28;20242;-73
2023/03/30 00:33:53;;;;;;;7.00;4.00;;;9.60;99.90;;;;;;5095354;28;20251;-72
2023/03/30 00:36:21;;;;;;;5.20;3.30;;;9.50;99.90;;;;;;5095804;28;20204;-73
2023/03/30 00:38:48;;;;;;;7.57;3.73;;;9.50;99.90;;;;;;5095650;28;20284;-73
2023/03/30 00:41:15;;;;;;;5.53;3.63;;;9.50;99.90;;;;;;5095563;28;20227;-73
2023/03/30 00:44:00;;;;;;;6.40;3.70;;;9.50;99.90;;;;;;5095373;28;20200;-72
2023/03/30 00:46:28;;;;;;;5.93;3.53;;;9.40;99.90;;;;;;5095159;28;20667;-72
2023/03/30 00:48:57;;;;;;;7.60;3.83;;;9.40;99.90;;;;;;5095526;28;20269;-73
2023/03/30 00:51:25;;;;;;;7.30;3.60;;;9.40;99.90;;;;;;5095408;28;20533;-72
2023/03/30 00:53:55;;;;;;;6.67;3.33;;;9.40;99.90;;;;;;5095288;28;20193;-73
2023/03/30 00:56:28;;;;;;;5.50;3.80;;;9.50;99.90;;;;;;5095148;28;20196;-73
2023/03/30 00:58:55;;;;;;;5.87;3.63;;;9.40;99.90;;;;;;5095056;28;20231;-73
2023/03/30 01:01:27;;;;;;;9.10;3.97;;;9.40;99.90;;;;;;5095138;28;20630;-73
2023/03/30 01:03:58;;;;;;;9.30;3.63;;;9.40;99.90;;;;;;5094980;28;20648;-73
2023/03/30 01:06:28;;;;;;;5.17;3.50;;;9.40;99.90;;;;;;5094889;28;20300;-73
2023/03/30 01:08:56;;;;;;;7.47;3.90;;;9.40;99.90;;;;;;5094940;28;20668;-72
2023/03/30 01:11:23;;;;;;;8.50;4.37;;;9.40;99.90;;;;;;5094841;28;20211;-72
2023/03/30 01:13:55;;;;;;;5.37;4.10;;;9.50;99.90;;;;;;5095037;28;20230;-72
2023/03/30 01:16:30;;;;;;;6.97;4.00;;;9.50;99.90;;;;;;5094943;28;20196;-72
2023/03/30 01:19:07;;;;;;;7.30;4.13;;;9.50;99.90;;;;;;5094844;28;20196;-73
2023/03/30 01:22:03;;;;;;;5.00;3.50;;;9.60;99.90;;;;;;5094693;28;20266;-72
2023/03/30 01:24:53;;;;;;;9.67;3.20;;;9.70;99.90;;;;;;5094850;28;20222;-72
2023/03/30 01:28:03;;;;;;;8.63;3.40;;;10.00;99.90;;;;;;5094642;28;20201;-73
2023/03/30 01:30:45;;;;;;;10.73;4.10;;;10.20;99.90;;;;;;5094882;28;20591;-72
2023/03/30 01:33:45;;;;;;;5.73;3.13;;;10.50;99.90;;;;;;5094408;28;20339;-72
2023/03/30 01:36:43;;;;;;;6.13;3.10;;;10.70;99.90;;;;;;5094471;28;20200;-73
2023/03/30 01:39:45;;;;;;;10.50;3.00;;;10.70;99.90;;;;;;5045385;28;20200;-73
2023/03/30 01:42:19;;;;;;;8.40;2.97;;;10.80;99.90;;;;;;5012031;28;20261;-73
2023/03/30 01:44:51;;;;;;;8.57;3.60;;;10.90;99.90;;;;;;5081617;28;20224;-73
2023/03/30 01:47:22;;;;;;;9.97;3.70;;;10.80;99.90;;;;;;5094439;28;20632;-73
2023/03/30 01:49:57;;;;;;;9.43;3.77;;;10.80;99.90;;;;;;5094267;28;20222;-73
2023/03/30 01:52:30;;;;;;;8.37;3.50;;;11.00;99.90;;;;;;5094100;28;20693;-73
2023/03/30 01:55:03;;;;;;;7.97;3.97;;;10.90;99.90;;;;;;5094026;28;20196;-73
2023/03/30 01:57:36;;;;;;;8.23;2.80;;;11.00;99.90;;;;;;5093949;28;20196;-73
2023/03/30 02:00:11;;;;;;;11.90;3.63;;;11.10;99.90;;;;;;5093383;28;20235;-73
2023/03/30 02:02:39;;;;;;;7.77;3.43;;;11.00;99.90;;;;;;5094019;28;20284;-73
2023/03/30 02:05:09;;;;;;;10.83;3.43;;;11.10;99.90;;;;;;5093801;28;20204;-73
2023/03/30 02:07:38;;;;;;;10.07;3.90;;;11.10;99.90;;;;;;5093815;28;20198;-72
2023/03/30 02:10:09;;;;;;;9.63;3.10;;;11.20;99.90;;;;;;5093677;28;20525;-73
2023/03/30 02:12:36;;;;;;;7.60;3.23;;;11.30;99.90;;;;;;5093896;28;20196;-73
2023/03/30 02:15:07;;;;;;;7.77;3.10;;;11.40;99.90;;;;;;5093722;28;20227;-72
2023/03/30 02:17:34;;;;;;;13.03;3.27;;;11.40;99.90;;;;;;5093585;28;20205;-72
2023/03/30 02:20:03;;;;;;;10.43;3.53;;;11.50;99.90;;;;;;5093554;28;20192;-73
2023/03/30 02:22:29;;;;;;;8.37;3.63;;;11.60;99.90;;;;;;5093267;28;20224;-72
2023/03/30 02:24:57;;;;;;;8.67;3.10;;;11.60;99.90;;;;;;5093604;28;20192;-73
2023/03/30 02:27:26;;;;;;;10.93;3.33;;;11.70;99.90;;;;;;5093538;28;20306;-73
2023/03/30 02:29:53;;;;;;;11.07;4.43;;;11.80;99.90;;;;;;5093421;28;20238;-72
2023/03/30 02:32:22;;;;;;;9.07;3.20;;;11.70;99.90;;;;;;5093445;28;20193;-72
2023/03/30 02:35:03;;;;;;;7.70;3.23;;;11.70;99.90;;;;;;5092997;28;20260;-72
2023/03/30 02:37:54;;;;;;;12.90;4.03;;;11.80;99.90;;;;;;5093383;28;20228;-72
2023/03/30 02:40:31;;;;;;;11.60;3.77;;;11.90;99.90;;;;;;5093323;28;20196;-72
2023/03/30 02:43:23;;;;;;;12.40;3.07;;;11.90;99.90;;;;;;5093183;28;20220;-72
2023/03/30 02:45:53;;;;;;;9.37;3.50;;;12.00;99.90;;;;;;5093289;28;20204;-72
2023/03/30 02:48:31;;;;;;;12.07;4.27;;;12.00;99.90;;;;;;5093389;28;20200;-72
2023/03/30 02:51:05;;;;;;;13.23;3.90;;;12.00;99.90;;;;;;5093122;28;20196;-72
2023/03/30 02:53:35;;;;;;;13.07;4.20;;;11.90;99.90;;;;;;5093013;28;20203;-72
2023/03/30 02:56:10;;;;;;;11.80;3.40;;;11.90;99.90;;;;;;5093635;28;20242;-72
2023/03/30 02:58:45;;;;;;;10.60;3.80;;;12.00;99.90;;;;;;5093133;28;20227;-73
2023/03/30 03:01:15;;;;;;;13.17;3.67;;;12.00;99.90;;;;;;5093424;28;20195;-72
2023/03/30 03:03:45;;;;;;;11.03;3.67;;;11.90;99.90;;;;;;5092893;28;20251;-72
2023/03/30 03:06:13;;;;;;;11.93;3.87;;;12.00;99.90;;;;;;5092736;28;20193;-72
2023/03/30 03:08:42;;;;;;;13.73;4.13;;;12.00;99.90;;;;;;5093196;28;20306;-72
2023/03/30 03:11:10;;;;;;;9.07;3.73;;;12.00;99.90;;;;;;5092943;28;20255;-72
2023/03/30 03:13:39;;;;;;;14.33;3.93;;;12.00;99.90;;;;;;5092751;28;20200;-72
2023/03/30 03:16:09;;;;;;;11.40;4.10;;;12.10;99.90;;;;;;5092724;28;20205;-72
2023/03/30 03:18:38;;;;;;;14.53;4.13;;;12.20;99.90;;;;;;5092749;28;20200;-72
2023/03/30 03:21:05;;;;;;;14.27;3.70;;;12.40;99.90;;;;;;5093009;28;20204;-72
2023/03/30 03:23:32;;;;;;;12.50;3.80;;;12.50;99.90;;;;;;5092709;28;20220;-72
2023/03/30 03:25:59;;;;;;;11.17;4.10;;;12.60;99.90;;;;;;5092757;28;20228;-72
2023/03/30 03:28:25;;;;;;;15.60;4.03;;;12.70;99.90;;;;;;5092720;28;20197;-73
2023/03/30 03:30:54;;;;;;;11.73;4.20;;;12.80;99.90;;;;;;5092625;28;20231;-72
2023/03/30 03:33:20;;;;;;;15.43;4.60;;;12.90;99.90;;;;;;5092339;28;20232;-73
2023/03/30 03:35:47;;;;;;;14.10;3.67;;;13.00;99.90;;;;;;5092484;28;20710;-72
2023/03/30 03:38:14;;;;;;;11.87;3.47;;;13.00;99.90;;;;;;5092688;28;20232;-73
2023/03/30 03:40:41;;;;;;;13.37;3.63;;;13.00;99.90;;;;;;5092385;28;20672;-72
2023/03/30 03:43:08;;;;;;;10.83;3.70;;;13.00;99.90;;;;;;5092504;28;20318;-72
2023/03/30 03:45:34;;;;;;;9.30;3.73;;;13.00;99.90;;;;;;5092294;28;20231;-72
2023/03/30 03:48:02;;;;;;;8.53;3.50;;;13.00;99.90;;;;;;5092545;28;20201;-72
2023/03/30 03:50:29;;;;;;;15.67;3.83;;;13.00;99.90;;;;;;5092515;28;20222;-72
2023/03/30 03:52:56;;;;;;;12.83;3.77;;;13.00;99.90;;;;;;5092548;28;20204;-72
2023/03/30 03:55:22;;;;;;;12.00;4.00;;;13.00;99.90;;;;;;5092204;28;20668;-72
2023/03/30 03:57:49;;;;;;;9.80;3.63;;;12.90;99.90;;;;;;5092385;28;20204;-71
2023/03/30 04:00:16;;;;;;;12.83;3.77;;;13.00;99.90;;;;;;5092295;28;20197;-72
2023/03/30 04:02:44;;;;;;;15.17;3.90;;;12.90;99.90;;;;;;5092331;28;20260;-72
2023/03/30 04:05:12;;;;;;;15.17;4.50;;;12.90;99.90;;;;;;5092159;28;20652;-72
2023/03/30 04:07:38;;;;;;;19.40;4.70;;;12.90;99.90;;;;;;5092310;28;20239;-72
2023/03/30 04:10:06;;;;;;;20.27;4.30;;;12.90;99.90;;;;;;5092038;28;20659;-74
2023/03/30 04:12:33;;;;;;;13.17;4.40;;;12.80;99.90;;;;;;5092094;28;20675;-73
2023/03/30 04:15:00;;;;;;;17.67;4.03;;;12.60;99.90;;;;;;5092094;28;20235;-74
2023/03/30 04:17:27;;;;;;;13.47;3.97;;;12.60;99.90;;;;;;5092125;28;20644;-74
2023/03/30 04:19:54;;;;;;;14.40;4.13;;;12.50;99.90;;;;;;5092493;28;20224;-75
2023/03/30 04:22:24;;;;;;;14.70;4.37;;;12.40;99.90;;;;;;5093539;28;20270;-75
2023/03/30 04:24:51;;;;;;;17.50;4.70;;;12.20;99.90;;;;;;5095893;28;20269;-73
2023/03/30 04:27:17;;;;;;;14.23;4.10;;;12.10;99.90;;;;;;5095974;28;20196;-74
2023/03/30 04:29:44;;;;;;;9.67;4.23;;;11.90;99.90;;;;;;5095628;28;20561;-78
2023/03/30 04:32:11;;;;;;;14.07;4.00;;;11.80;99.90;;;;;;5095924;28;20204;-78
2023/03/30 04:34:41;;;;;;;18.20;4.63;;;11.70;99.90;;;;;;5095523;28;20220;-78
2023/03/30 04:37:08;;;;;;;17.20;4.60;;;11.60;99.90;;;;;;5095745;28;20196;-78
2023/03/30 04:39:37;;;;;;;18.63;4.43;;;11.60;99.90;;;;;;5095580;28;20200;-77
2023/03/30 04:42:05;;;;;;;22.60;4.87;;;11.60;99.90;;;;;;5095261;28;20239;-76
2023/03/30 04:44:32;;;;;;;17.27;4.70;;;11.60;99.90;;;;;;5095228;28;20583;-76
2023/03/30 04:46:58;;;;;;;12.83;4.50;;;11.50;99.90;;;;;;5095441;28;20235;-77
2023/03/30 04:49:25;;;;;;;17.50;5.40;;;11.60;99.90;;;;;;5095422;28;20235;-77
2023/03/30 04:51:53;;;;;;;16.23;4.50;;;11.60;99.90;;;;;;5095163;28;20200;-77
2023/03/30 04:54:20;;;;;;;15.93;5.50;;;11.60;99.90;;;;;;5095186;28;20205;-76
2023/03/30 04:56:48;;;;;;;14.87;4.53;;;11.60;99.90;;;;;;5095174;28;20266;-77
2023/03/30 04:59:15;;;;;;;15.13;4.77;;;11.50;99.90;;;;;;5095297;28;20200;-76
2023/03/30 05:01:41;;;;;;;13.73;4.50;;;11.60;99.90;;;;;;5095161;28;20593;-77
2023/03/30 05:04:08;;;;;;;15.50;4.83;;;11.70;99.90;;;;;;5095145;28;20564;-77
2023/03/30 05:06:35;;;;;;;15.00;4.83;;;11.60;99.90;;;;;;5095012;28;20235;-77
2023/03/30 05:09:02;;;;;;;13.00;4.83;;;11.60;99.90;;;;;;5094571;28;20209;-76
2023/03/30 05:11:29;;;;;;;20.93;5.83;;;11.70;99.90;;;;;;5095082;28;20751;-78
2023/03/30 05:13:57;;;;;;;17.83;5.07;;;11.70;99.90;;;;;;5094637;28;20262;-78
2023/03/30 05:16:23;;;;;;;21.43;5.70;;;11.60;99.90;;;;;;5094961;28;20224;-77
2023/03/30 05:18:50;;;;;;;18.67;5.47;;;11.20;99.90;;;;;;5094714;28;20227;-75
2023/03/30 05:21:16;;;;;;;11.90;4.67;;;11.00;99.90;;;;;;5094661;28;20279;-75
2023/03/30 05:23:43;;;;;;;19.83;6.07;;;11.00;99.90;;;;;;5094451;28;20745;-74
2023/03/30 05:26:10;;;;;;;19.20;5.63;;;11.00;99.90;;;;;;5094643;28;20554;-75
2023/03/30 05:28:36;;;;;;;12.77;5.50;;;11.00;99.90;;;;;;5094690;28;20231;-74
2023/03/30 05:31:05;;;;;;;17.87;6.63;;;11.00;99.90;;;;;;5094493;28;20232;-74
2023/03/30 05:33:32;;;;;;;22.10;6.23;;;11.10;99.90;;;;;;5093382;28;20221;-74
2023/03/30 05:35:58;;;;;;;18.50;6.00;;;11.10;99.90;;;;;;5094350;28;20624;-74
2023/03/30 05:38:25;;;;;;;16.40;5.17;;;11.00;99.90;;;;;;5094178;28;20237;-75
2023/03/30 05:40:52;;;;;;;19.20;5.83;;;11.00;99.90;;;;;;5094234;28;20204;-74
2023/03/30 05:43:19;;;;;;;20.27;6.17;;;11.20;99.90;;;;;;5094286;28;20247;-75
2023/03/30 05:45:46;;;;;;;12.43;5.23;;;11.40;99.90;;;;;;5093995;28;20637;-76
2023/03/30 05:48:14;;;;;;;17.33;6.00;;;11.40;99.90;;;;;;5094208;28;20562;-75
2023/03/30 05:50:41;;;;;;;19.80;5.90;;;11.40;99.90;;;;;;5093760;28;20196;-74
2023/03/30 05:53:08;;;;;;;16.60;5.50;;;11.40;99.90;;;;;;5094276;28;20236;-75
2023/03/30 05:55:34;;;;;;;21.23;9.40;;;11.40;99.90;;;;;;5094125;28;20270;-75
2023/03/30 05:58:02;;;;;;;21.30;8.60;;;11.30;99.90;;;;;;5093943;28;20206;-76
2023/03/30 06:00:32;;;;;;;59.50;31.23;;;11.20;99.90;;;;;;5093667;28;20709;-74
2023/03/30 06:02:58;;;;;;;35.60;16.33;;;11.20;99.90;;;;;;5093622;28;20220;-76
2023/03/30 06:05:26;;;;;;;19.00;7.47;;;11.20;99.90;;;;;;5093832;28;20224;-75
2023/03/30 06:07:53;;;;;;;18.30;6.37;;;11.20;99.90;;;;;;5093887;28;20204;-75
2023/03/30 06:10:20;;;;;;;16.87;6.13;;;11.30;99.90;;;;;;5093746;28;20667;-76
2023/03/30 06:12:46;;;;;;;12.13;5.77;;;11.30;99.90;;;;;;5093901;28;20207;-77
2023/03/30 06:15:13;;;;;;;19.73;6.87;;;11.20;99.90;;;;;;5093805;28;20196;-74
2023/03/30 06:17:39;;;;;;;14.77;6.13;;;11.20;99.90;;;;;;5093422;28;20275;-78
2023/03/30 06:20:11;;;;;;;16.33;5.93;;;11.30;99.90;;;;;;5093461;28;20220;-77
2023/03/30 06:22:40;;;;;;;15.23;6.60;;;11.30;99.90;;;;;;5093842;28;20200;-82
2023/03/30 06:25:08;;;;;;;29.20;10.97;;;11.30;99.90;;;;;;5094009;28;20253;-74
2023/03/30 06:27:35;;;;;;;15.33;6.13;;;11.40;99.90;;;;;;5093545;28;20219;-77
2023/03/30 06:30:02;;;;;;;21.07;6.57;;;11.40;99.90;;;;;;5093462;28;20244;-74
2023/03/30 06:32:29;;;;;;;17.33;5.87;;;11.40;99.90;;;;;;5093422;28;20618;-77
2023/03/30 06:34:55;;;;;;;14.47;6.00;;;11.50;99.90;;;;;;5093217;28;20259;-74
2023/03/30 06:37:22;;;;;;;17.77;5.67;;;11.40;99.90;;;;;;5093430;28;20197;-76
2023/03/30 06:39:50;;;;;;;20.47;6.43;;;11.40;99.90;;;;;;5093123;28;20594;-76
2023/03/30 06:42:16;;;;;;;20.97;6.37;;;11.40;99.90;;;;;;5093132;28;20284;-77
2023/03/30 06:44:43;;;;;;;18.10;5.70;;;11.40;99.90;;;;;;5092957;28;20274;-74
2023/03/30 06:47:10;;;;;;;17.50;6.13;;;11.40;99.90;;;;;;5100982;28;20552;-75
2023/03/30 06:49:36;;;;;;;15.57;5.43;;;11.40;99.90;;;;;;5095402;28;20335;-75
2023/03/30 06:52:03;;;;;;;16.63;6.30;;;11.40;99.90;;;;;;5093033;28;20192;-75
2023/03/30 06:54:29;;;;;;;23.03;6.17;;;11.30;99.90;;;;;;5093481;28;20200;-74
2023/03/30 06:56:57;;;;;;;21.43;6.47;;;11.20;99.90;;;;;;5093104;28;20246;-75
2023/03/30 06:59:24;;;;;;;19.10;6.30;;;11.20;99.90;;;;;;5092819;28;20608;-74
2023/03/30 07:01:51;;;;;;;19.33;5.93;;;11.10;99.90;;;;;;5093150;28;20196;-77
2023/03/30 07:04:17;;;;;;;16.00;5.90;;;11.00;99.90;;;;;;5092813;28;20645;-76
2023/03/30 07:06:44;;;;;;;25.07;6.33;;;11.00;99.90;;;;;;5092998;28;20236;-76
2023/03/30 07:09:11;;;;;;;20.23;7.17;;;11.00;99.90;;;;;;5093109;28;20229;-76
2023/03/30 07:11:38;;;;;;;13.80;5.60;;;11.10;99.90;;;;;;5092773;28;20232;-73
2023/03/30 07:14:08;;;;;;;15.43;8.67;;;11.10;99.90;;;;;;5092642;28;20196;-73
2023/03/30 07:16:37;;;;;;;21.10;6.40;;;11.10;99.90;;;;;;5093060;28;20207;-76
2023/03/30 07:19:04;;;;;;;18.23;6.67;;;11.00;99.90;;;;;;5092603;28;20659;-74
2023/03/30 07:21:31;;;;;;;19.80;6.47;;;11.10;99.90;;;;;;5092652;28;20196;-75
2023/03/30 07:24:00;;;;;;;19.40;6.50;;;11.10;99.90;;;;;;5092422;28;20552;-74
2023/03/30 07:26:26;;;;;;;18.10;6.07;;;11.10;99.90;;;;;;5092629;28;20197;-74
2023/03/30 07:28:53;;;;;;;20.17;7.57;;;11.10;99.90;;;;;;5092778;28;20196;-75
2023/03/30 07:31:21;;;;;;;21.20;7.03;;;11.00;99.90;;;;;;5092681;28;20237;-73
2023/03/30 07:33:47;;;;;;;18.40;6.43;;;10.80;99.90;;;;;;5092490;28;20264;-74
2023/03/30 07:36:14;;;;;;;22.30;8.40;;;10.70;99.90;;;;;;5092563;28;20223;-76
2023/03/30 07:38:41;;;;;;;23.77;8.03;;;10.70;99.90;;;;;;5092545;28;20269;-77
2023/03/30 07:41:08;;;;;;;26.57;7.67;;;10.70;99.90;;;;;;5092150;28;20196;-76
2023/03/30 07:43:35;;;;;;;15.00;7.33;;;10.70;99.90;;;;;;5092927;28;20310;-77
2023/03/30 07:46:02;;;;;;;18.27;7.40;;;10.80;99.90;;;;;;5090618;28;20228;-77
2023/03/30 07:48:30;;;;;;;18.00;7.57;;;10.90;99.90;;;;;;5076273;28;20189;-78
2023/03/30 07:51:01;;;;;;;18.63;8.10;;;11.00;99.90;;;;;;5081108;28;20660;-78
2023/03/30 07:53:27;;;;;;;18.20;7.43;;;11.00;99.90;;;;;;5092191;28;20196;-78
2023/03/30 07:55:54;;;;;;;23.60;7.90;;;11.00;99.90;;;;;;5092370;28;20188;-77
2023/03/30 07:58:21;;;;;;;21.23;7.73;;;11.00;99.90;;;;;;5096042;28;20200;-77
2023/03/30 08:00:47;;;;;;;19.30;7.67;;;11.00;99.90;;;;;;5095720;28;20607;-77
2023/03/30 08:03:14;;;;;;;20.20;7.90;;;11.00;99.90;;;;;;5096312;28;20233;-78
2023/03/30 08:05:42;;;;;;;25.17;8.07;;;11.00;99.90;;;;;;5096132;28;20219;-79
2023/03/30 08:08:09;;;;;;;21.43;7.67;;;10.90;99.90;;;;;;5096220;28;20196;-80
2023/03/30 08:10:36;;;;;;;20.33;8.07;;;10.90;99.90;;;;;;5096441;28;20185;-80
2023/03/30 08:13:02;;;;;;;23.67;8.97;;;10.80;99.90;;;;;;5095941;28;20232;-79
2023/03/30 08:15:29;;;;;;;22.43;7.80;;;10.80;99.90;;;;;;5096447;28;20193;-81
2023/03/30 08:17:56;;;;;;;22.93;8.50;;;10.80;99.90;;;;;;5095743;28;20537;-77
2023/03/30 08:20:24;;;;;;;26.80;9.20;;;10.70;99.90;;;;;;5095383;28;20282;-76
2023/03/30 08:22:52;;;;;;;28.63;9.27;;;10.70;99.90;;;;;;5095488;28;20227;-76
2023/03/30 08:25:19;;;;;;;25.60;9.10;;;10.60;99.90;;;;;;5095282;28;20224;-76
2023/03/30 08:27:46;;;;;;;26.20;10.07;;;10.70;99.90;;;;;;5095664;28;20193;-77
2023/03/30 08:30:15;;;;;;;20.40;8.37;;;10.70;99.90;;;;;;5095932;28;20204;-77
2023/03/30 08:32:41;;;;;;;27.43;11.03;;;10.70;99.90;;;;;;5095523;28;20383;-77
2023/03/30 08:35:09;;;;;;;25.17;10.47;;;10.60;99.90;;;;;;5095057;28;20263;-76
2023/03/30 08:37:35;;;;;;;23.27;11.37;;;10.70;99.90;;;;;;5095443;28;20224;-77
2023/03/30 08:40:05;;;;;;;23.07;11.13;;;10.70;99.90;;;;;;5095397;28;20197;-76
2023/03/30 08:42:56;;;;;;;24.80;10.10;;;10.80;99.90;;;;;;5095161;28;20203;-76
2023/03/30 08:45:23;;;;;;;21.37;10.27;;;10.80;99.90;;;;;;5094933;28;20255;-75
2023/03/30 08:47:52;;;;;;;26.37;10.83;;;10.80;99.90;;;;;;5095093;28;20253;-75
2023/03/30 08:50:29;;;;;;;31.83;11.63;;;10.80;99.90;;;;;;5095401;28;20223;-79
2023/03/30 08:52:56;;;;;;;31.27;11.73;;;10.90;99.90;;;;;;5095520;28;20292;-80
2023/03/30 08:55:31;;;;;;;32.17;12.37;;;11.00;99.90;;;;;;5095908;28;20197;-80
2023/03/30 08:58:02;;;;;;;22.50;9.43;;;11.10;99.90;;;;;;5095645;28;20196;-80
2023/03/30 09:00:37;;;;;;;25.97;11.90;;;11.20;99.90;;;;;;5095177;28;20211;-81
2023/03/30 09:03:11;;;;;;;21.77;9.97;;;11.30;99.90;;;;;;5095484;28;20199;-80
2023/03/30 09:05:43;;;;;;;27.20;10.17;;;11.50;99.90;;;;;;5095541;28;20258;-80
2023/03/30 09:08:18;;;;;;;27.43;10.00;;;11.50;99.90;;;;;;5094938;28;20320;-80
2023/03/30 09:10:50;;;;;;;29.27;9.73;;;11.50;99.90;;;;;;5094786;28;20199;-80
2023/03/30 09:13:20;;;;;;;20.97;9.80;;;11.30;99.90;;;;;;5095460;28;20238;-80
2023/03/30 09:15:52;;;;;;;18.07;8.53;;;11.30;99.90;;;;;;5095169;28;20239;-80
2023/03/30 09:18:23;;;;;;;19.37;8.13;;;11.30;99.90;;;;;;5095199;28;20192;-79
2023/03/30 09:20:54;;;;;;;18.33;8.20;;;11.30;99.90;;;;;;5094962;28;20614;-79
2023/03/30 09:23:21;;;;;;;20.33;8.37;;;11.20;99.90;;;;;;5094756;28;20913;-86
2023/03/30 09:25:54;;;;;;;14.90;7.83;;;11.30;99.90;;;;;;5081787;28;20231;-79
2023/03/30 09:28:26;;;;;;;15.67;7.33;;;11.30;99.90;;;;;;5094980;28;20235;-79
2023/03/30 09:31:00;;;;;;;15.83;7.23;;;11.30;99.90;;;;;;5092420;28;20223;-76
2023/03/30 09:33:31;;;;;;;14.33;7.47;;;11.30;99.90;;;;;;5093775;28;20228;-76
2023/03/30 09:36:10;;;;;;;16.90;7.20;;;11.30;99.90;;;;;;5094384;28;20193;-76
2023/03/30 09:38:40;;;;;;;12.97;6.83;;;11.30;99.90;;;;;;5094479;28;20266;-75
2023/03/30 09:41:31;;;;;;;15.00;6.10;;;11.20;99.90;;;;;;5094036;28;20271;-78
2023/03/30 09:44:00;;;;;;;14.40;6.23;;;11.20;99.90;;;;;;5083885;28;20220;-76
2023/03/30 09:46:26;;;;;;;10.80;6.23;;;11.00;99.90;;;;;;5093778;28;20192;-76
2023/03/30 09:48:53;;;;;;;9.97;6.43;;;11.00;99.90;;;;;;5094323;28;20235;-78
2023/03/30 09:51:23;;;;;;;11.33;7.00;;;10.90;99.90;;;;;;5094149;28;20196;-79
2023/03/30 09:53:53;;;;;;;12.83;5.90;;;11.10;99.90;;;;;;5094378;28;20199;-78
2023/03/30 09:56:27;;;;;;;11.10;6.93;;;10.90;99.90;;;;;;5094193;28;20232;-77
2023/03/30 09:58:54;;;;;;;21.60;10.87;;;10.90;99.90;;;;;;5093255;28;20590;-78
2023/03/30 10:01:23;;;;;;;11.20;6.93;;;10.90;99.90;;;;;;5092566;28;20250;-77
2023/03/30 10:04:11;;;;;;;10.47;6.50;;;10.80;99.90;;;;;;5094050;28;20215;-78
2023/03/30 10:06:45;;;;;;;11.80;6.73;;;10.80;99.90;;;;;;5096298;28;20670;-77
2023/03/30 10:09:12;;;;;;;11.53;6.53;;;10.90;99.90;;;;;;5096109;28;20200;-77
2023/03/30 10:11:43;;;;;;;12.50;8.20;;;10.80;99.90;;;;;;5099066;28;20235;-80
2023/03/30 10:14:28;;;;;;;12.27;9.77;;;10.70;99.90;;;;;;5098739;28;20288;-81
2023/03/30 10:16:55;;;;;;;28.27;22.03;;;10.90;99.90;;;;;;5079517;28;20258;-82
2023/03/30 10:19:23;;;;;;;9.50;5.73;;;11.00;99.90;;;;;;5075006;28;20204;-85
2023/03/30 10:21:54;;;;;;;9.67;6.33;;;11.00;99.90;;;;;;5082550;28;20197;-82
2023/03/30 10:24:22;;;;;;;9.30;5.60;;;11.10;99.90;;;;;;5083979;28;20220;-82
2023/03/30 10:26:52;;;;;;;8.20;5.43;;;11.20;99.90;;;;;;5084161;28;20197;-81
2023/03/30 10:29:22;;;;;;;11.63;4.63;;;11.30;99.90;;;;;;5079623;28;20526;-82
2023/03/30 10:31:54;;;;;;;8.27;5.30;;;11.10;99.90;;;;;;5077617;28;20189;-80
2023/03/30 10:34:28;;;;;;;10.63;5.20;;;11.10;99.90;;;;;;5076826;28;20614;-80
2023/03/30 10:36:54;;;;;;;11.77;6.77;;;11.20;99.90;;;;;;5074755;28;20236;-79
2023/03/30 10:39:25;;;;;;;10.67;5.60;;;11.50;99.90;;;;;;5074646;28;20212;-79
2023/03/30 10:41:54;;;;;;;9.07;5.77;;;11.70;99.90;;;;;;5073813;28;20193;-79
2023/03/30 10:44:25;;;;;;;7.33;4.30;;;11.60;99.90;;;;;;5073346;28;20370;-80
2023/03/30 10:46:57;;;;;;;7.33;4.53;;;11.50;99.90;;;;;;5073608;28;20197;-81
2023/03/30 10:49:35;;;;;;;9.80;4.23;;;11.80;99.90;;;;;;5073908;28;20200;-81
2023/03/30 10:52:10;;;;;;;6.40;3.83;;;12.30;99.90;;;;;;5073533;28;20228;-81
2023/03/30 10:54:42;;;;;;;6.10;3.77;;;12.70;99.90;;;;;;5073477;28;20232;-81
2023/03/30 10:57:14;;;;;;;8.07;3.70;;;12.80;99.90;;;;;;5073631;28;20209;-73
2023/03/30 10:59:56;;;;;;;5.87;3.50;;;12.70;99.90;;;;;;5075155;28;20201;-76
2023/03/30 11:02:34;;;;;;;5.03;3.27;;;12.40;99.90;;;;;;5073427;28;20680;-78
2023/03/30 11:05:04;;;;;;;5.17;3.40;;;12.50;99.90;;;;;;5073212;28;20255;-79
2023/03/30 11:07:35;;;;;;;4.47;3.47;;;12.70;99.90;;;;;;5072492;28;20228;-78
2023/03/30 11:10:10;;;;;;;6.10;3.53;;;12.80;99.90;;;;;;5073152;28;20718;-80
2023/03/30 11:12:44;;;;;;;5.13;3.20;;;13.30;99.90;;;;;;5073012;28;20555;-77
2023/03/30 11:15:16;;;;;;;5.03;2.90;;;13.60;99.90;;;;;;5072916;28;20258;-78
2023/03/30 11:17:53;;;;;;;5.43;3.20;;;13.20;99.90;;;;;;5072938;28;20219;-79
2023/03/30 11:20:27;;;;;;;5.93;2.97;;;13.00;99.90;;;;;;5072278;28;20193;-79
2023/03/30 11:22:58;;;;;;;5.53;3.53;;;12.90;99.90;;;;;;5055607;28;20205;-80
2023/03/30 11:25:29;;;;;;;5.63;2.90;;;12.80;99.90;;;;;;5072430;28;20252;-77
2023/03/30 11:28:07;;;;;;;5.17;3.13;;;12.90;99.90;;;;;;5072632;28;20200;-77
2023/03/30 11:30:35;;;;;;;5.23;2.80;;;12.90;99.90;;;;;;5073011;28;20255;-77
2023/03/30 11:33:11;;;;;;;5.03;3.60;;;12.90;99.90;;;;;;5075280;28;20201;-77
2023/03/30 11:35:42;;;;;;;8.57;4.00;;;13.00;99.90;;;;;;5076833;28;20234;-77
2023/03/30 11:38:14;;;;;;;5.17;3.07;;;13.10;99.90;;;;;;5076620;28;20228;-77
2023/03/30 11:40:44;;;;;;;7.33;3.33;;;13.20;99.90;;;;;;5076640;28;20197;-76
2023/03/30 11:43:13;;;;;;;8.37;3.73;;;13.30;99.90;;;;;;5076577;28;20209;-77
2023/03/30 11:45:45;;;;;;;6.23;3.00;;;13.40;99.90;;;;;;5076233;28;20263;-75
2023/03/30 11:48:39;;;;;;;5.50;3.80;;;13.40;99.90;;;;;;5076229;28;20197;-75
2023/03/30 11:51:22;;;;;;;4.30;3.00;;;13.50;99.90;;;;;;5066716;28;20200;-76
2023/03/30 11:53:55;;;;;;;5.03;3.23;;;13.30;99.90;;;;;;5076437;28;20228;-76
2023/03/30 11:56:30;;;;;;;6.17;2.87;;;13.50;99.90;;;;;;5076421;28;20232;-76
2023/03/30 11:59:05;;;;;;;6.83;3.20;;;13.40;99.90;;;;;;5075999;28;20231;-75
2023/03/30 12:01:49;;;;;;;5.63;2.97;;;13.30;99.90;;;;;;5075937;28;20200;-74
2023/03/30 12:04:24;;;;;;;6.37;2.90;;;13.50;99.90;;;;;;5076239;28;20210;-75
2023/03/30 12:06:57;;;;;;;8.40;3.10;;;13.60;99.90;;;;;;5076169;28;20200;-75
2023/03/30 12:09:27;;;;;;;3.60;2.93;;;14.10;99.90;;;;;;5075845;28;20201;-76
2023/03/30 12:12:04;;;;;;;4.50;2.70;;;14.00;99.90;;;;;;5075786;28;20205;-76
2023/03/30 12:14:44;;;;;;;5.03;2.57;;;15.00;99.90;;;;;;5077472;28;20270;-89
2023/03/30 12:17:39;;;;;;;5.18;3.15;;;16.10;99.90;;;;;;5075909;28;20204;-76
2023/03/30 12:20:18;;;;;;;4.45;2.80;;;16.60;99.90;;;;;;5075480;28;20670;-75
2023/03/30 12:22:50;;;;;;;5.90;3.20;;;16.30;99.90;;;;;;5075658;28;20247;-76
2023/03/30 12:25:27;;;;;;;6.20;3.63;;;16.40;99.90;;;;;;5075482;28;20253;-75
2023/03/30 12:27:58;;;;;;;5.38;3.33;;;15.60;99.90;;;;;;5075511;28;20617;-75
2023/03/30 12:30:28;;;;;;;5.75;4.18;;;15.00;99.90;;;;;;5075292;28;20263;-74
2023/03/30 12:33:01;;;;;;;8.68;3.88;;;15.10;99.90;;;;;;5074914;28;20250;-75
2023/03/30 12:36:01;;;;;;;6.20;4.53;;;15.00;99.90;;;;;;5075445;28;20288;-75
2023/03/30 12:38:37;;;;;;;6.97;3.20;;;15.40;99.90;;;;;;5075258;28;20201;-75
2023/03/30 12:41:13;;;;;;;10.43;7.23;;;15.20;99.90;;;;;;5075322;28;20242;-75
2023/03/30 12:43:51;;;;;;;7.40;3.47;;;14.90;99.90;;;;;;5076333;28;20212;-76
2023/03/30 12:46:24;;;;;;;6.23;4.47;;;14.50;99.90;;;;;;5075453;28;20260;-75
2023/03/30 12:49:03;;;;;;;10.40;4.67;;;14.60;99.90;;;;;;5075504;28;20205;-75
2023/03/30 12:51:47;;;;;;;5.70;4.30;;;14.60;99.90;;;;;;5075445;28;20201;-76
2023/03/30 12:54:41;;;;;;;6.30;3.90;;;14.70;99.90;;;;;;5077490;28;20197;-76
2023/03/30 12:57:21;;;;;;;8.40;4.40;;;14.50;99.90;;;;;;5075136;28;20235;-76
2023/03/30 13:00:09;;;;;;;5.47;3.60;;;14.50;99.90;;;;;;5075235;28;20698;-76